Time;durP1;ratioP1;P1;durP2;ratioP2;P2;SDS_P1;SDS_P2;PMS_P1;PMS_P2;Temp;Humidity;BMP_temperature;BMP_pressure;BME280_temperature;BME280_humidity;BME280_pressure;Samples;Min_cycle;Max_cycle;Signal;HPM_P1;HPM_P2
2022/11/06 00:00:37;;;;;;;4.40;1.50;;;12.60;79.30;;;;;;4993205;28;20536;-71
2022/11/06 00:03:06;;;;;;;1.67;1.53;;;12.60;77.20;;;;;;4987510;28;20478;-71
2022/11/06 00:08:32;;;;;;;1.90;1.57;;;12.60;77.70;;;;;;5003025;28;20557;-71
2022/11/06 00:11:00;;;;;;;1.60;1.47;;;12.60;79.00;;;;;;4987856;28;21035;-71
2022/11/06 00:13:29;;;;;;;1.43;1.23;;;12.60;77.50;;;;;;4978122;28;20512;-71
2022/11/06 00:16:02;;;;;;;2.03;1.30;;;12.60;77.30;;;;;;5000993;28;20554;-71
2022/11/06 00:18:31;;;;;;;2.40;1.37;;;12.60;77.70;;;;;;4987064;28;21056;-71
2022/11/06 00:20:59;;;;;;;2.17;1.60;;;12.60;77.80;;;;;;4985862;28;20484;-71
2022/11/06 00:23:29;;;;;;;1.10;1.00;;;12.60;77.80;;;;;;5002617;28;20581;-71
2022/11/06 00:25:57;;;;;;;2.20;1.37;;;12.60;77.80;;;;;;4987269;28;20948;-71
2022/11/06 00:28:25;;;;;;;2.17;1.67;;;12.60;77.30;;;;;;4987487;28;20856;-71
2022/11/06 00:31:01;;;;;;;2.50;1.40;;;12.60;77.70;;;;;;5002300;28;20987;-71
2022/11/06 00:33:30;;;;;;;1.60;1.27;;;12.60;77.30;;;;;;4987578;28;20476;-71
2022/11/06 00:35:58;;;;;;;2.07;1.50;;;12.60;77.40;;;;;;5002041;28;20465;-64
2022/11/06 00:38:26;;;;;;;1.63;1.53;;;12.60;77.30;;;;;;4974951;28;20477;-64
2022/11/06 00:40:56;;;;;;;1.70;1.30;;;12.50;77.60;;;;;;4988314;28;20492;-65
2022/11/06 00:43:25;;;;;;;1.77;1.27;;;12.60;77.60;;;;;;4984281;28;20520;-64
2022/11/06 00:45:53;;;;;;;2.03;1.50;;;12.50;77.40;;;;;;4984896;28;20480;-64
2022/11/06 00:48:21;;;;;;;1.63;1.47;;;12.60;77.40;;;;;;5002428;28;20442;-64
2022/11/06 00:50:49;;;;;;;4.43;1.43;;;12.50;77.30;;;;;;4977347;28;20441;-64
2022/11/06 00:53:18;;;;;;;2.30;1.43;;;12.50;77.30;;;;;;4992851;28;20875;-64
2022/11/06 00:55:46;;;;;;;1.87;1.20;;;12.50;77.00;;;;;;4988861;28;20532;-64
2022/11/06 00:58:16;;;;;;;1.33;1.20;;;12.50;77.50;;;;;;4994188;28;20466;-64
2022/11/06 01:00:44;;;;;;;1.73;1.50;;;12.50;77.30;;;;;;4978721;28;20505;-64
2022/11/06 01:03:15;;;;;;;4.50;1.70;;;12.50;77.00;;;;;;4975873;28;20445;-64
2022/11/06 01:05:43;;;;;;;4.03;1.63;;;12.50;76.70;;;;;;4969027;28;20530;-64
2022/11/06 01:08:11;;;;;;;3.00;1.17;;;12.50;76.80;;;;;;4985646;28;20450;-64
2022/11/06 01:10:40;;;;;;;2.47;1.37;;;12.50;76.80;;;;;;4988728;28;20903;-64
2022/11/06 01:13:08;;;;;;;1.30;1.20;;;12.50;77.00;;;;;;4990576;28;20476;-64
2022/11/06 01:15:38;;;;;;;1.87;1.30;;;12.50;76.90;;;;;;4974251;28;20867;-64
2022/11/06 01:18:06;;;;;;;2.43;1.17;;;12.50;76.40;;;;;;4976511;28;20452;-64
2022/11/06 01:20:37;;;;;;;3.33;1.43;;;12.50;76.80;;;;;;4995418;28;20965;-64
2022/11/06 01:23:05;;;;;;;1.93;1.57;;;12.50;76.80;;;;;;4986818;28;20470;-64
2022/11/06 01:25:34;;;;;;;1.80;1.50;;;12.50;76.80;;;;;;4989301;28;20465;-64
2022/11/06 01:28:02;;;;;;;1.53;1.20;;;12.50;78.00;;;;;;4993451;28;20492;-64
2022/11/06 01:30:30;;;;;;;1.30;1.20;;;12.40;77.10;;;;;;4990466;28;21077;-64
2022/11/06 01:33:00;;;;;;;1.47;1.10;;;12.50;77.10;;;;;;4989340;28;20442;-64
2022/11/06 01:35:28;;;;;;;2.70;1.20;;;12.50;77.10;;;;;;4982300;28;20441;-64
2022/11/06 01:37:57;;;;;;;2.70;1.03;;;12.40;77.00;;;;;;4987993;28;20581;-64
2022/11/06 01:40:25;;;;;;;1.50;1.07;;;12.50;77.10;;;;;;5005743;28;20500;-64
2022/11/06 01:42:53;;;;;;;1.63;1.33;;;12.50;77.30;;;;;;4989319;28;20515;-64
2022/11/06 01:45:33;;;;;;;3.00;1.23;;;12.50;77.30;;;;;;4988695;28;20461;-64
2022/11/06 01:48:04;;;;;;;2.43;1.10;;;12.50;77.10;;;;;;4999509;28;20883;-64
2022/11/06 01:50:33;;;;;;;1.63;0.80;;;12.50;76.90;;;;;;4988520;28;20465;-64
2022/11/06 01:53:02;;;;;;;1.80;1.40;;;12.50;77.20;;;;;;5001901;28;20730;-64
2022/11/06 01:55:34;;;;;;;2.10;1.03;;;12.50;77.10;;;;;;4978192;28;20937;-64
2022/11/06 01:58:07;;;;;;;2.00;1.40;;;12.50;77.10;;;;;;4982573;28;20437;-64
2022/11/06 02:00:36;;;;;;;1.83;1.23;;;12.50;77.10;;;;;;4994013;28;20557;-64
2022/11/06 02:03:06;;;;;;;2.30;1.07;;;12.50;77.30;;;;;;4998671;28;20553;-64
2022/11/06 02:05:35;;;;;;;1.37;1.00;;;12.40;77.30;;;;;;4982409;28;21008;-64
2022/11/06 02:08:04;;;;;;;4.77;1.43;;;12.50;77.30;;;;;;4987907;28;20536;-64
2022/11/06 02:10:33;;;;;;;1.30;1.20;;;12.50;77.20;;;;;;4987066;28;20462;-64
2022/11/06 02:13:20;;;;;;;2.83;1.23;;;12.40;77.00;;;;;;4982588;28;20753;-64
2022/11/06 02:15:55;;;;;;;3.97;2.03;;;12.50;76.90;;;;;;4999434;28;20434;-64
2022/11/06 02:18:48;;;;;;;2.53;1.27;;;12.50;77.10;;;;;;4987642;28;20480;-64
2022/11/06 02:21:51;;;;;;;3.10;1.30;;;12.40;76.90;;;;;;4978810;28;20533;-64
2022/11/06 02:24:44;;;;;;;1.73;1.50;;;12.50;77.10;;;;;;4990778;28;20481;-64
2022/11/06 02:27:15;;;;;;;1.33;0.90;;;12.50;77.40;;;;;;4981244;28;20441;-64
2022/11/06 02:29:50;;;;;;;1.77;1.03;;;12.40;77.40;;;;;;4982344;28;20520;-64
2022/11/06 02:32:23;;;;;;;2.80;1.30;;;12.40;77.20;;;;;;4973348;28;20450;-64
2022/11/06 02:34:54;;;;;;;1.40;1.10;;;12.50;77.30;;;;;;4997425;28;20450;-64
2022/11/06 02:37:29;;;;;;;1.80;1.40;;;12.50;77.30;;;;;;4993069;28;20869;-64
2022/11/06 02:40:00;;;;;;;1.90;1.30;;;12.50;77.30;;;;;;4980535;28;20831;-64
2022/11/06 02:45:19;;;;;;;1.57;1.40;;;12.40;77.30;;;;;;5017814;28;20472;-50
2022/11/06 02:47:53;;;;;;;1.63;1.00;;;12.50;77.50;;;;;;5002418;28;21023;-49
2022/11/06 02:50:25;;;;;;;3.50;1.20;;;12.40;77.40;;;;;;4993445;28;20440;-51
2022/11/06 02:52:57;;;;;;;1.37;0.90;;;12.50;77.30;;;;;;4991186;28;20556;-50
2022/11/06 02:55:31;;;;;;;2.20;1.20;;;12.40;77.40;;;;;;5008489;28;20483;-51
2022/11/06 02:58:03;;;;;;;2.00;0.93;;;12.50;77.50;;;;;;5013801;28;20507;-51
2022/11/06 03:00:36;;;;;;;2.37;0.90;;;12.40;77.50;;;;;;4994364;28;20421;-51
2022/11/06 03:03:09;;;;;;;1.23;1.10;;;12.40;77.30;;;;;;5007316;28;21037;-51
2022/11/06 03:05:41;;;;;;;2.10;1.30;;;12.50;77.70;;;;;;4994806;28;20457;-51
2022/11/06 03:08:16;;;;;;;3.70;3.33;;;12.50;77.70;;;;;;4976593;28;20920;-49
2022/11/06 03:10:52;;;;;;;1.37;0.90;;;12.40;77.40;;;;;;4980092;28;20715;-49
2022/11/06 03:13:27;;;;;;;1.73;1.20;;;12.40;77.70;;;;;;4980705;28;20461;-51
2022/11/06 03:16:04;;;;;;;2.60;1.20;;;12.50;77.70;;;;;;4976840;28;20445;-49
2022/11/06 03:18:36;;;;;;;4.23;1.50;;;12.40;77.70;;;;;;4984989;28;20477;-49
2022/11/06 03:21:08;;;;;;;3.23;0.93;;;12.40;77.50;;;;;;4972200;28;20790;-50
2022/11/06 03:23:43;;;;;;;1.23;1.13;;;12.40;77.70;;;;;;4989892;28;20520;-50
2022/11/06 03:26:16;;;;;;;2.57;1.23;;;12.40;77.70;;;;;;4974425;28;20480;-51
2022/11/06 03:28:53;;;;;;;1.90;1.07;;;12.40;77.70;;;;;;4992501;28;20468;-50
2022/11/06 03:31:29;;;;;;;2.80;0.93;;;12.40;77.70;;;;;;5005096;28;20441;-49
2022/11/06 03:34:02;;;;;;;2.40;1.20;;;12.40;78.90;;;;;;4993425;28;20472;-50
2022/11/06 03:36:34;;;;;;;1.80;1.33;;;12.40;77.80;;;;;;4998382;28;20679;-50
2022/11/06 03:39:06;;;;;;;1.40;0.93;;;12.40;77.80;;;;;;4991208;28;20484;-51
2022/11/06 03:41:41;;;;;;;1.50;1.40;;;12.40;77.80;;;;;;5027062;28;20746;-49
2022/11/06 03:44:13;;;;;;;1.60;0.80;;;12.40;77.80;;;;;;5035303;28;20463;-49
2022/11/06 03:47:02;;;;;;;2.10;0.87;;;12.40;77.70;;;;;;5020894;28;20983;-51
2022/11/06 03:49:36;;;;;;;1.27;1.17;;;12.40;77.80;;;;;;5016998;28;20560;-50
2022/11/06 03:52:08;;;;;;;2.50;2.17;;;12.40;77.80;;;;;;5006137;28;20556;-49
2022/11/06 03:54:42;;;;;;;1.73;1.43;;;12.40;77.90;;;;;;5001891;28;20887;-51
2022/11/06 03:57:15;;;;;;;1.97;1.40;;;12.40;77.90;;;;;;5015488;28;20477;-51
2022/11/06 03:59:47;;;;;;;3.23;1.10;;;12.40;77.80;;;;;;5018169;28;20841;-51
2022/11/06 04:02:19;;;;;;;2.30;1.30;;;12.40;77.90;;;;;;5005763;28;20967;-49
2022/11/06 04:04:51;;;;;;;1.43;1.10;;;12.40;77.80;;;;;;5008597;28;20473;-49
2022/11/06 04:07:23;;;;;;;1.80;1.10;;;12.40;77.90;;;;;;5008181;28;20445;-50
2022/11/06 04:15:33;;;;;;;1.03;0.97;;;12.40;77.80;;;;;;5001756;28;20483;-49
2022/11/06 04:18:03;;;;;;;4.93;1.37;;;12.40;78.00;;;;;;5009059;28;21010;-50
2022/11/06 04:23:38;;;;;;;1.10;0.80;;;12.30;77.80;;;;;;5027664;28;20469;-50
2022/11/06 04:29:06;;;;;;;1.27;0.83;;;12.40;77.80;;;;;;5018220;28;20481;-51
2022/11/06 04:31:42;;;;;;;3.47;1.20;;;12.40;77.80;;;;;;5008911;28;20495;-51
2022/11/06 04:34:21;;;;;;;1.93;1.00;;;12.40;77.80;;;;;;5016809;28;20476;-50
2022/11/06 04:36:56;;;;;;;0.80;0.80;;;12.40;77.90;;;;;;5009848;28;20454;-51
2022/11/06 04:39:32;;;;;;;1.37;1.10;;;12.30;77.90;;;;;;5012367;28;20479;-52
2022/11/06 04:42:06;;;;;;;2.67;1.50;;;12.30;77.90;;;;;;5009104;28;20476;-51
2022/11/06 04:44:40;;;;;;;3.23;1.03;;;12.40;78.00;;;;;;5005442;28;20515;-50
2022/11/06 04:47:11;;;;;;;1.40;1.20;;;12.30;77.90;;;;;;5021433;28;20470;-49
2022/11/06 04:49:44;;;;;;;1.17;0.70;;;12.30;77.80;;;;;;5005874;28;20491;-49
2022/11/06 04:52:18;;;;;;;3.27;1.37;;;12.30;78.00;;;;;;5012101;28;20833;-50
2022/11/06 04:54:47;;;;;;;1.23;1.10;;;12.30;77.90;;;;;;5019408;28;20507;-49
2022/11/06 04:57:15;;;;;;;1.23;0.83;;;12.30;77.90;;;;;;5017379;28;20826;-51
2022/11/06 04:59:44;;;;;;;2.73;1.07;;;12.30;77.90;;;;;;5012559;28;20504;-50
2022/11/06 05:02:13;;;;;;;2.70;0.90;;;12.30;78.00;;;;;;5014884;28;20883;-51
2022/11/06 05:04:43;;;;;;;0.93;0.87;;;12.30;77.80;;;;;;5009864;28;20995;-50
2022/11/06 05:07:13;;;;;;;1.50;1.10;;;12.30;77.90;;;;;;5017264;28;20529;-50
2022/11/06 05:09:42;;;;;;;1.93;0.87;;;12.30;77.90;;;;;;5016662;28;20556;-51
2022/11/06 05:12:11;;;;;;;1.50;1.10;;;12.30;77.90;;;;;;5021218;28;20982;-52
2022/11/06 05:14:39;;;;;;;2.27;1.23;;;12.30;77.90;;;;;;5002985;28;21053;-50
2022/11/06 05:17:08;;;;;;;1.80;1.00;;;12.30;77.80;;;;;;5022421;28;20439;-50
2022/11/06 05:19:36;;;;;;;1.40;1.00;;;12.30;77.90;;;;;;5007271;28;20515;-49
2022/11/06 05:24:52;;;;;;;3.80;1.70;;;12.30;77.90;;;;;;5008651;28;20475;-49
2022/11/06 05:27:21;;;;;;;1.87;0.90;;;12.30;77.90;;;;;;5009035;28;20469;-50
2022/11/06 05:29:49;;;;;;;1.23;0.70;;;12.30;78.00;;;;;;5007756;28;20480;-49
2022/11/06 05:32:18;;;;;;;1.00;0.90;;;12.30;77.90;;;;;;5016388;28;20460;-49
2022/11/06 05:34:46;;;;;;;1.03;0.87;;;12.30;78.30;;;;;;5009068;28;20851;-51
2022/11/06 05:37:16;;;;;;;1.03;0.90;;;12.30;77.90;;;;;;5020616;28;20635;-50
2022/11/06 05:39:45;;;;;;;1.67;1.00;;;12.30;77.80;;;;;;5007927;28;20476;-51
2022/11/06 05:42:13;;;;;;;1.20;0.83;;;12.30;77.90;;;;;;5011921;28;20518;-50
2022/11/06 05:44:42;;;;;;;3.93;0.90;;;12.30;78.00;;;;;;5012448;28;20899;-51
2022/11/06 05:47:10;;;;;;;1.90;0.83;;;12.30;77.70;;;;;;5021482;28;20473;-49
2022/11/06 05:49:39;;;;;;;1.40;0.87;;;12.30;77.70;;;;;;5008017;28;20479;-51
2022/11/06 05:52:08;;;;;;;1.20;1.10;;;12.30;77.70;;;;;;5020762;28;20511;-49
2022/11/06 05:54:38;;;;;;;1.57;1.03;;;12.30;77.80;;;;;;5007292;28;21000;-51
2022/11/06 05:57:06;;;;;;;1.83;0.90;;;12.30;77.80;;;;;;5018452;28;20450;-50
2022/11/06 05:59:35;;;;;;;2.50;1.10;;;12.30;77.80;;;;;;5003398;28;20473;-50
2022/11/06 06:02:03;;;;;;;1.53;1.00;;;12.30;77.80;;;;;;5015724;28;20464;-51
2022/11/06 06:04:32;;;;;;;1.73;0.90;;;12.30;77.70;;;;;;5007265;28;20568;-50
2022/11/06 06:07:01;;;;;;;1.73;1.00;;;12.30;77.80;;;;;;5009518;28;20472;-50
2022/11/06 06:09:29;;;;;;;2.37;1.10;;;12.30;77.60;;;;;;5029636;28;21030;-50
2022/11/06 06:11:59;;;;;;;2.20;0.80;;;12.30;77.80;;;;;;5027352;28;20455;-51
2022/11/06 06:14:28;;;;;;;3.57;1.00;;;12.30;77.90;;;;;;5010844;28;20737;-51
2022/11/06 06:16:56;;;;;;;1.50;1.10;;;12.30;77.80;;;;;;5020530;28;20433;-51
2022/11/06 06:19:25;;;;;;;0.80;0.70;;;12.20;77.70;;;;;;5010479;28;20507;-51
2022/11/06 06:21:54;;;;;;;3.40;0.93;;;12.30;77.80;;;;;;5010783;28;20846;-50
2022/11/06 06:24:22;;;;;;;0.73;0.67;;;12.20;77.70;;;;;;5010648;28;20490;-48
2022/11/06 06:26:51;;;;;;;1.20;0.77;;;12.20;77.70;;;;;;5011721;28;20469;-51
2022/11/06 06:29:21;;;;;;;1.00;0.83;;;12.20;77.90;;;;;;5017248;28;20527;-51
2022/11/06 06:31:49;;;;;;;0.70;0.60;;;12.20;77.90;;;;;;5016003;28;20832;-50
2022/11/06 06:34:18;;;;;;;1.27;0.73;;;12.20;78.00;;;;;;5016678;28;20468;-51
2022/11/06 06:36:50;;;;;;;2.80;0.97;;;12.20;77.90;;;;;;5010501;28;20516;-52
2022/11/06 06:39:21;;;;;;;1.10;0.70;;;12.20;77.70;;;;;;5022465;28;21007;-50
2022/11/06 06:41:49;;;;;;;3.17;1.07;;;12.30;77.90;;;;;;5017621;28;20476;-48
2022/11/06 06:44:19;;;;;;;0.87;0.87;;;12.20;77.80;;;;;;5000553;28;20566;-51
2022/11/06 06:46:48;;;;;;;0.80;0.67;;;12.20;77.90;;;;;;5010396;28;20471;-48
2022/11/06 06:49:17;;;;;;;1.53;0.70;;;12.20;77.90;;;;;;5006939;28;20473;-50
2022/11/06 06:51:47;;;;;;;1.60;1.07;;;12.20;78.00;;;;;;5013551;28;20523;-49
2022/11/06 06:54:16;;;;;;;2.07;0.90;;;12.20;77.90;;;;;;5011502;28;20479;-51
2022/11/06 06:56:44;;;;;;;1.90;0.87;;;12.20;77.80;;;;;;5022951;28;20556;-49
2022/11/06 06:59:13;;;;;;;2.40;0.90;;;12.20;77.90;;;;;;5009995;28;20468;-49
2022/11/06 07:01:44;;;;;;;3.33;1.27;;;12.20;78.00;;;;;;4990127;28;20463;-49
2022/11/06 07:04:12;;;;;;;3.47;1.03;;;12.20;77.70;;;;;;5010941;28;20519;-49
2022/11/06 07:06:41;;;;;;;2.20;1.20;;;12.20;77.60;;;;;;5008686;28;20556;-49
2022/11/06 07:09:09;;;;;;;1.10;0.60;;;12.20;77.90;;;;;;5010630;28;20975;-50
2022/11/06 07:11:38;;;;;;;1.37;1.00;;;12.20;78.00;;;;;;5034750;28;20461;-49
2022/11/06 07:14:07;;;;;;;1.40;0.93;;;12.20;78.00;;;;;;5003529;28;20469;-50
2022/11/06 07:16:35;;;;;;;1.20;1.10;;;12.20;78.00;;;;;;5012211;28;20499;-48
2022/11/06 07:19:05;;;;;;;2.00;1.23;;;12.20;77.90;;;;;;5021479;28;20542;-49
2022/11/06 07:21:34;;;;;;;2.50;0.60;;;12.20;77.90;;;;;;5023642;28;20465;-50
2022/11/06 07:24:03;;;;;;;1.67;0.70;;;12.20;78.00;;;;;;5013801;28;20465;-50
2022/11/06 07:26:49;;;;;;;1.20;0.80;;;12.20;77.90;;;;;;5011148;28;20456;-49
2022/11/06 07:29:37;;;;;;;1.20;0.70;;;12.20;77.90;;;;;;4991771;28;20468;-49
2022/11/06 07:32:27;;;;;;;1.87;0.90;;;12.20;77.90;;;;;;4994438;28;20919;-49
2022/11/06 07:38:54;;;;;;;3.00;1.13;;;12.20;77.90;;;;;;4998868;28;20451;-50
2022/11/06 07:48:08;;;;;;;1.00;0.80;;;12.20;78.00;;;;;;5021482;28;20499;-50
2022/11/06 07:56:55;;;;;;;2.20;1.10;;;12.20;78.20;;;;;;4990132;28;20768;-48
2022/11/06 08:00:00;;;;;;;0.83;0.80;;;12.20;78.20;;;;;;4992961;28;20851;-50
2022/11/06 08:02:56;;;;;;;3.20;1.00;;;12.20;78.40;;;;;;5021823;28;20469;-51
2022/11/06 08:06:04;;;;;;;2.30;0.50;;;12.20;78.30;;;;;;5018884;28;20562;-49
2022/11/06 08:08:52;;;;;;;2.47;1.23;;;12.20;78.30;;;;;;5003584;28;20464;-49
2022/11/06 08:11:59;;;;;;;0.80;0.80;;;12.20;78.40;;;;;;5009358;28;20467;-49
2022/11/06 08:14:41;;;;;;;0.60;0.60;;;12.20;78.50;;;;;;4996177;28;20921;-50
2022/11/06 08:17:33;;;;;;;2.27;0.70;;;12.20;78.50;;;;;;5033477;28;20448;-50
2022/11/06 08:23:29;;;;;;;0.90;0.60;;;12.20;78.30;;;;;;5017709;28;20460;-50
2022/11/06 08:29:41;;;;;;;1.00;0.77;;;12.20;78.10;;;;;;5015080;28;20468;-50
2022/11/06 08:32:27;;;;;;;1.27;0.73;;;12.30;78.20;;;;;;5015467;28;20464;-49
2022/11/06 08:35:27;;;;;;;3.27;0.60;;;12.30;78.10;;;;;;5025451;28;20452;-49
2022/11/06 08:38:30;;;;;;;0.80;0.60;;;12.30;78.10;;;;;;5042022;28;20519;-48
2022/11/06 08:44:42;;;;;;;1.30;0.70;;;12.30;77.90;;;;;;5006737;23;20997;-70
2022/11/06 08:47:10;;;;;;;0.80;0.80;;;12.30;78.00;;;;;;4989923;28;20463;-70
2022/11/06 08:49:39;;;;;;;1.07;1.07;;;12.30;77.90;;;;;;5006922;28;20927;-69
2022/11/06 08:52:07;;;;;;;0.80;0.50;;;12.30;77.80;;;;;;5009004;28;20476;-68
2022/11/06 08:54:37;;;;;;;1.17;0.70;;;12.30;77.80;;;;;;4975944;28;20474;-69
2022/11/06 08:57:05;;;;;;;1.10;0.53;;;12.30;77.80;;;;;;4984813;28;20496;-69
2022/11/06 08:59:33;;;;;;;0.60;0.50;;;12.40;77.70;;;;;;5002943;28;20514;-69
2022/11/06 09:02:02;;;;;;;0.70;0.50;;;12.40;77.70;;;;;;5000766;28;20440;-68
2022/11/06 09:04:30;;;;;;;0.70;0.47;;;12.40;77.70;;;;;;4992680;28;20480;-68
2022/11/06 09:07:02;;;;;;;0.87;0.80;;;12.40;77.70;;;;;;5010423;28;20449;-69
2022/11/06 09:09:31;;;;;;;0.67;0.53;;;12.40;77.60;;;;;;4974188;28;21006;-69
2022/11/06 09:12:02;;;;;;;1.73;0.70;;;12.40;77.50;;;;;;5006843;28;21358;-69
2022/11/06 09:14:30;;;;;;;1.20;0.60;;;12.40;77.50;;;;;;4981826;28;20484;-68
2022/11/06 09:16:59;;;;;;;1.37;0.80;;;12.40;77.60;;;;;;4985349;28;20865;-69
2022/11/06 09:19:27;;;;;;;1.40;0.70;;;12.40;77.60;;;;;;5001200;28;20469;-67
2022/11/06 09:21:56;;;;;;;1.00;0.67;;;12.40;77.60;;;;;;4982350;28;20508;-68
2022/11/06 09:24:24;;;;;;;3.63;0.70;;;12.40;77.60;;;;;;4986347;28;20481;-68
2022/11/06 09:27:14;;;;;;;1.00;0.60;;;12.40;77.60;;;;;;4977558;28;20446;-69
2022/11/06 09:29:43;;;;;;;2.60;1.27;;;12.40;77.50;;;;;;4980797;28;20556;-68
2022/11/06 09:32:12;;;;;;;1.03;0.80;;;12.40;77.50;;;;;;4988901;28;20426;-68
2022/11/06 09:34:41;;;;;;;1.10;0.80;;;12.40;77.60;;;;;;4981324;28;20565;-67
2022/11/06 09:37:10;;;;;;;2.53;0.73;;;12.40;77.50;;;;;;4977449;28;20470;-67
2022/11/06 09:39:39;;;;;;;3.33;0.67;;;12.40;77.50;;;;;;4982196;28;20811;-67
2022/11/06 09:42:21;;;;;;;2.80;1.30;;;12.40;77.60;;;;;;5001035;28;20856;-72
2022/11/06 09:45:02;;;;;;;1.20;1.10;;;12.50;77.60;;;;;;4998259;28;20230;-73
2022/11/06 09:47:36;;;;;;;2.20;1.20;;;12.50;77.30;;;;;;5005131;28;20458;-72
2022/11/06 09:50:11;;;;;;;3.13;1.10;;;12.50;77.20;;;;;;4981581;28;20552;-74
2022/11/06 09:52:45;;;;;;;2.23;1.27;;;12.50;77.30;;;;;;4984234;28;20457;-73
2022/11/06 09:55:19;;;;;;;1.50;0.93;;;12.50;77.30;;;;;;5007389;28;21379;-73
2022/11/06 09:57:56;;;;;;;1.63;0.83;;;12.50;77.30;;;;;;4998511;28;20446;-74
2022/11/06 10:00:25;;;;;;;1.80;1.10;;;12.50;77.40;;;;;;5003793;28;20564;-72
2022/11/06 10:02:56;;;;;;;2.00;0.83;;;12.50;77.30;;;;;;4999006;28;20760;-73
2022/11/06 10:05:28;;;;;;;1.13;0.70;;;12.50;77.50;;;;;;4981935;28;20442;-73
2022/11/06 10:08:00;;;;;;;1.57;0.90;;;12.40;77.40;;;;;;5003539;28;20509;-73
2022/11/06 10:10:41;;;;;;;1.73;0.70;;;12.40;77.40;;;;;;4986541;28;20454;-73
2022/11/06 10:13:28;;;;;;;1.57;0.90;;;12.50;77.50;;;;;;4989072;28;20850;-74
2022/11/06 10:16:04;;;;;;;0.83;0.57;;;12.40;77.60;;;;;;4983214;28;20452;-74
2022/11/06 10:18:44;;;;;;;2.60;1.00;;;12.40;77.50;;;;;;4996775;28;20480;-74
2022/11/06 10:21:20;;;;;;;1.33;0.70;;;12.40;77.50;;;;;;4989760;28;20445;-73
2022/11/06 10:23:52;;;;;;;1.77;0.97;;;12.40;77.50;;;;;;4994251;28;20473;-72
2022/11/06 10:26:27;;;;;;;1.70;0.80;;;12.40;77.50;;;;;;4994463;28;20445;-72
2022/11/06 10:29:37;;;;;;;0.87;0.70;;;12.40;77.40;;;;;;5001019;28;20510;-73
2022/11/06 10:32:35;;;;;;;1.90;1.00;;;12.40;77.50;;;;;;4993451;28;20472;-73
2022/11/06 10:35:12;;;;;;;1.20;0.80;;;12.40;77.50;;;;;;4993641;28;20560;-73
2022/11/06 10:37:46;;;;;;;2.53;1.10;;;12.40;77.50;;;;;;4992702;28;20460;-73
2022/11/06 10:40:18;;;;;;;1.10;1.00;;;12.40;77.50;;;;;;5000804;28;20987;-73
2022/11/06 10:43:01;;;;;;;2.73;1.30;;;12.40;77.40;;;;;;5008590;28;20499;-72
2022/11/06 10:45:30;;;;;;;1.73;0.90;;;12.40;77.50;;;;;;4992556;28;20449;-72
2022/11/06 10:48:10;;;;;;;1.77;0.77;;;12.40;77.40;;;;;;4990853;28;20431;-72
2022/11/06 10:50:52;;;;;;;1.10;0.97;;;12.40;77.40;;;;;;5000538;28;20466;-72
2022/11/06 10:53:28;;;;;;;1.23;0.70;;;12.40;77.40;;;;;;4987800;28;20480;-74
2022/11/06 10:56:09;;;;;;;1.73;0.90;;;12.40;77.40;;;;;;5008188;28;20537;-73
2022/11/06 10:58:39;;;;;;;1.73;0.73;;;12.40;77.40;;;;;;4980590;28;20477;-73
2022/11/06 11:01:13;;;;;;;1.07;0.70;;;12.40;77.30;;;;;;4984381;28;20931;-74
2022/11/06 11:03:48;;;;;;;1.03;0.90;;;12.40;78.70;;;;;;4986108;28;20840;-74
2022/11/06 11:06:17;;;;;;;2.03;0.90;;;12.40;77.50;;;;;;5005951;28;21104;-73
2022/11/06 11:08:47;;;;;;;2.30;1.20;;;12.40;77.50;;;;;;4986732;28;20473;-74
2022/11/06 11:11:26;;;;;;;1.20;0.80;;;12.40;78.80;;;;;;4987001;28;20442;-66
2022/11/06 11:14:22;;;;;;;1.33;1.07;;;12.40;77.40;;;;;;5003261;28;20972;-67
2022/11/06 11:16:51;;;;;;;1.43;0.90;;;12.40;77.30;;;;;;4975238;28;20824;-69
2022/11/06 11:19:27;;;;;;;1.40;0.70;;;12.40;77.40;;;;;;4985246;28;20543;-69
2022/11/06 11:21:58;;;;;;;0.80;0.80;;;12.40;77.30;;;;;;4993766;28;20569;-73
2022/11/06 11:24:27;;;;;;;1.03;0.70;;;12.40;77.30;;;;;;4986242;28;20511;-73
2022/11/06 11:26:59;;;;;;;1.93;0.77;;;12.40;77.40;;;;;;4972853;28;20506;-74
2022/11/06 11:29:31;;;;;;;1.33;0.90;;;12.40;77.30;;;;;;4988617;28;20473;-73
2022/11/06 11:32:03;;;;;;;1.53;0.70;;;12.40;77.10;;;;;;4999151;28;20437;-73
2022/11/06 11:34:35;;;;;;;1.30;0.90;;;12.40;77.30;;;;;;5017784;28;20478;-73
2022/11/06 11:37:07;;;;;;;2.43;1.00;;;12.40;77.30;;;;;;4977755;28;20451;-73
2022/11/06 11:39:39;;;;;;;1.00;0.70;;;12.40;77.30;;;;;;4994169;28;20475;-73
2022/11/06 11:42:22;;;;;;;1.00;0.80;;;12.40;77.30;;;;;;5017652;28;20452;-74
2022/11/06 11:45:13;;;;;;;1.90;1.50;;;12.40;77.30;;;;;;4985152;28;20535;-73
2022/11/06 11:47:44;;;;;;;1.07;0.67;;;12.40;77.30;;;;;;4983210;28;20976;-73
2022/11/06 11:50:27;;;;;;;0.83;0.67;;;12.40;77.20;;;;;;4991676;28;20474;-73
2022/11/06 11:53:00;;;;;;;0.93;0.73;;;12.40;77.30;;;;;;5004068;28;20779;-73
2022/11/06 11:55:40;;;;;;;0.80;0.60;;;12.40;77.30;;;;;;4990739;28;20445;-73
2022/11/06 11:58:21;;;;;;;3.70;0.83;;;12.40;77.20;;;;;;4984755;28;20798;-73
2022/11/06 12:00:54;;;;;;;3.37;0.70;;;12.40;77.20;;;;;;4980740;28;20442;-74
2022/11/06 12:03:24;;;;;;;1.63;0.73;;;12.40;77.30;;;;;;4984142;28;20473;-73
2022/11/06 12:06:05;;;;;;;1.47;0.60;;;12.40;77.30;;;;;;4985898;28;20438;-72
2022/11/06 12:08:33;;;;;;;1.97;1.00;;;12.40;77.30;;;;;;4984522;28;20804;-71
2022/11/06 12:11:04;;;;;;;1.67;0.90;;;12.40;77.20;;;;;;4999315;28;20462;-72
2022/11/06 12:13:32;;;;;;;1.47;0.90;;;12.40;77.30;;;;;;4987414;28;20555;-73
2022/11/06 12:16:03;;;;;;;1.57;1.10;;;12.40;77.30;;;;;;4991420;28;20449;-74
2022/11/06 12:18:34;;;;;;;1.73;0.80;;;12.40;77.20;;;;;;4997155;28;20814;-73
2022/11/06 12:21:06;;;;;;;1.10;0.70;;;12.40;77.20;;;;;;4986352;28;20430;-73
2022/11/06 12:23:41;;;;;;;2.07;1.60;;;12.40;77.30;;;;;;4994572;28;21009;-73
2022/11/06 12:26:20;;;;;;;1.00;0.63;;;12.40;77.30;;;;;;4987694;28;20516;-73
2022/11/06 12:28:51;;;;;;;2.40;0.80;;;12.40;77.20;;;;;;4996928;28;20561;-75
2022/11/06 12:31:33;;;;;;;0.97;0.77;;;12.40;77.00;;;;;;5001671;28;20500;-73
2022/11/06 12:34:05;;;;;;;0.90;0.73;;;12.40;77.00;;;;;;4979008;28;20502;-73
2022/11/06 12:36:45;;;;;;;4.33;0.70;;;12.40;77.00;;;;;;4993437;28;20470;-73
2022/11/06 12:39:22;;;;;;;1.97;1.10;;;12.40;76.80;;;;;;4976883;28;20483;-73
2022/11/06 12:41:54;;;;;;;1.23;0.70;;;12.40;76.50;;;;;;5003441;28;20476;-74
2022/11/06 12:44:23;;;;;;;1.57;0.60;;;12.40;76.70;;;;;;4985934;28;20476;-73
2022/11/06 12:46:57;;;;;;;1.80;0.90;;;12.40;76.70;;;;;;4998076;28;20538;-72
2022/11/06 12:50:00;;;;;;;0.97;0.80;;;12.40;76.30;;;;;;4985945;28;20473;-72
2022/11/06 12:52:44;;;;;;;0.60;0.50;;;12.40;76.50;;;;;;4995821;28;20464;-74
2022/11/06 12:55:23;;;;;;;1.80;0.77;;;12.40;76.60;;;;;;4978041;28;20550;-74
2022/11/06 12:58:10;;;;;;;0.60;0.60;;;12.40;76.60;;;;;;4974051;28;20526;-73
2022/11/06 13:00:51;;;;;;;1.07;0.73;;;12.40;76.60;;;;;;4985072;28;20468;-73
2022/11/06 13:03:35;;;;;;;2.10;0.73;;;12.40;76.40;;;;;;4985978;28;20505;-74
2022/11/06 13:06:10;;;;;;;1.90;0.73;;;12.40;76.00;;;;;;4993638;28;20430;-72
2022/11/06 13:08:53;;;;;;;1.47;0.70;;;12.40;76.30;;;;;;4979167;28;20484;-73
2022/11/06 13:11:31;;;;;;;1.27;0.90;;;12.40;76.30;;;;;;4994476;28;20520;-73
2022/11/06 13:14:14;;;;;;;1.23;0.73;;;12.40;76.00;;;;;;4993691;28;20474;-73
2022/11/06 13:16:49;;;;;;;1.10;0.87;;;12.40;76.10;;;;;;4987494;28;20972;-73
2022/11/06 13:19:25;;;;;;;1.00;0.90;;;12.40;76.90;;;;;;5008458;28;20469;-75
2022/11/06 13:22:07;;;;;;;1.63;1.00;;;12.40;75.60;;;;;;4985495;28;20588;-74
2022/11/06 13:24:44;;;;;;;0.90;0.60;;;12.40;75.80;;;;;;4987593;28;20876;-72
2022/11/06 13:27:23;;;;;;;2.10;0.90;;;12.50;75.90;;;;;;4991464;28;20830;-73
2022/11/06 13:29:54;;;;;;;1.67;0.57;;;12.40;76.00;;;;;;4999696;28;20536;-75
2022/11/06 13:32:25;;;;;;;1.17;0.83;;;12.50;76.20;;;;;;4983768;28;20864;-73
2022/11/06 13:34:57;;;;;;;0.80;0.70;;;12.50;75.80;;;;;;4981313;28;20477;-73
2022/11/06 13:37:37;;;;;;;1.40;0.70;;;12.50;76.00;;;;;;4999487;28;20438;-72
2022/11/06 13:40:22;;;;;;;1.37;0.80;;;12.40;75.80;;;;;;4987849;28;20462;-72
2022/11/06 13:42:56;;;;;;;1.13;0.60;;;12.50;75.80;;;;;;5001775;28;20446;-68
2022/11/06 13:45:25;;;;;;;0.77;0.77;;;12.50;75.80;;;;;;4973033;28;20875;-68
2022/11/06 13:48:09;;;;;;;1.03;0.80;;;12.50;75.90;;;;;;5005175;28;20472;-69
2022/11/06 13:50:46;;;;;;;3.07;0.70;;;12.50;75.70;;;;;;4995263;28;20555;-68
2022/11/06 13:53:22;;;;;;;1.17;1.00;;;12.50;76.10;;;;;;4996552;28;20464;-69
2022/11/06 13:56:04;;;;;;;0.80;0.77;;;12.50;76.00;;;;;;4996006;28;20533;-68
2022/11/06 13:59:04;;;;;;;1.10;0.63;;;12.50;75.60;;;;;;5005732;28;20480;-69
2022/11/06 14:01:45;;;;;;;1.10;0.80;;;12.50;75.30;;;;;;4977847;28;20454;-69
2022/11/06 14:04:41;;;;;;;1.00;0.70;;;12.50;75.20;;;;;;4994986;28;21004;-68
2022/11/06 14:07:11;;;;;;;2.30;0.80;;;12.50;74.70;;;;;;5004889;28;20445;-68
2022/11/06 14:09:44;;;;;;;2.30;0.90;;;12.50;74.40;;;;;;4988356;28;20666;-70